createdAt,value
2018-07-17T00:01:51.201Z,22.10
2018-07-17T00:03:56.074Z,22.00
2018-07-17T00:06:00.304Z,21.90
2018-07-17T00:08:09.159Z,21.70
2018-07-17T00:10:13.447Z,21.90
2018-07-17T00:12:17.365Z,22.10
2018-07-17T00:14:22.214Z,22.20
2018-07-17T00:16:26.582Z,22.00
2018-07-17T00:18:30.616Z,21.60
2018-07-17T00:20:35.270Z,21.30
2018-07-17T00:22:45.376Z,21.10
2018-07-17T00:24:51.464Z,21.00
2018-07-17T00:27:06.624Z,21.00
2018-07-17T00:29:11.793Z,21.10
2018-07-17T00:31:17.813Z,21.50
2018-07-17T00:33:22.732Z,21.70
2018-07-17T00:35:26.623Z,21.80
2018-07-17T00:37:33.850Z,21.90
2018-07-17T00:39:37.860Z,22.00
2018-07-17T00:41:42.486Z,22.00
2018-07-17T00:43:47.322Z,22.10
2018-07-17T00:45:51.246Z,22.10
2018-07-17T00:47:55.687Z,22.20
2018-07-17T00:50:00.952Z,22.20
2018-07-17T00:52:04.912Z,22.00
2018-07-17T00:54:09.146Z,21.80
2018-07-17T00:56:14.932Z,21.70
2018-07-17T00:58:21.830Z,21.60
2018-07-17T01:00:31.259Z,21.70
2018-07-17T01:02:40.467Z,21.70
2018-07-17T01:04:50.270Z,21.80
2018-07-17T01:07:01.824Z,21.90
2018-07-17T01:09:12.920Z,21.90
2018-07-17T01:11:22.741Z,21.90
2018-07-17T01:13:39.404Z,21.90
2018-07-17T01:15:43.406Z,21.90
2018-07-17T01:17:48.823Z,21.90
2018-07-17T01:19:53.031Z,21.80
2018-07-17T01:21:57.627Z,21.70
2018-07-17T01:24:02.240Z,21.60
2018-07-17T01:26:06.177Z,21.50
2018-07-17T01:30:15.763Z,21.50
2018-07-17T01:32:19.963Z,21.40
2018-07-17T01:34:24.719Z,21.20
2018-07-17T01:36:28.909Z,21.10
2018-07-17T01:38:33.436Z,21.00
2018-07-17T01:40:38.738Z,21.00
2018-07-17T01:42:42.708Z,21.00
2018-07-17T01:44:48.232Z,20.90
2018-07-17T01:46:52.176Z,20.80
2018-07-17T01:48:56.078Z,20.80
2018-07-17T01:51:00.025Z,20.70
2018-07-17T01:53:04.891Z,20.50
2018-07-17T01:55:08.932Z,20.40
2018-07-17T01:57:17.504Z,20.30
2018-07-17T01:59:21.484Z,20.20
2018-07-17T02:01:25.655Z,20.10
2018-07-17T02:03:34.991Z,20.10
2018-07-17T02:05:38.967Z,20.00
2018-07-17T02:07:44.181Z,19.90
2018-07-17T02:09:51.970Z,19.90
2018-07-17T02:11:56.314Z,19.70
2018-07-17T02:14:00.580Z,19.70
2018-07-17T02:16:04.896Z,19.70
2018-07-17T02:18:09.429Z,19.70
2018-07-17T02:20:14.775Z,19.60
2018-07-17T02:22:19.141Z,19.70
2018-07-17T02:24:23.365Z,19.70
2018-07-17T02:26:27.765Z,19.80
2018-07-17T02:28:32.903Z,19.90
2018-07-17T02:30:37.154Z,19.80
2018-07-17T02:32:41.435Z,19.70
2018-07-17T02:34:46.892Z,19.70
2018-07-17T02:38:54.699Z,19.90
2018-07-17T02:40:58.702Z,20.10
2018-07-17T02:43:02.690Z,20.00
2018-07-17T02:45:06.861Z,20.10
2018-07-17T02:47:10.812Z,20.20
2018-07-17T02:49:17.204Z,20.00
2018-07-17T02:51:22.354Z,19.90
2018-07-17T02:53:26.338Z,19.90
2018-07-17T02:55:32.572Z,19.90
2018-07-17T02:57:38.780Z,19.90
2018-07-17T02:59:42.771Z,19.90
2018-07-17T03:01:46.743Z,19.80
2018-07-17T03:03:50.670Z,19.70
2018-07-17T03:05:54.620Z,19.70
2018-07-17T03:07:58.945Z,19.60
2018-07-17T03:10:02.839Z,19.50
2018-07-17T03:12:08.982Z,19.40
2018-07-17T03:14:14.331Z,19.30
2018-07-17T03:16:18.265Z,19.30
2018-07-17T03:18:22.300Z,19.50
2018-07-17T03:20:26.947Z,19.70
2018-07-17T03:22:30.990Z,19.80
2018-07-17T03:24:34.983Z,20.00
2018-07-17T03:26:39.699Z,20.10
2018-07-17T03:28:43.865Z,20.20
2018-07-17T03:30:47.864Z,20.30
2018-07-17T03:32:52.127Z,20.20
2018-07-17T03:34:56.054Z,20.30
2018-07-17T03:37:00.043Z,20.30
2018-07-17T03:41:14.716Z,20.30
2018-07-17T03:43:19.338Z,20.30
2018-07-17T03:45:23.715Z,20.30
2018-07-17T03:47:27.629Z,20.30
2018-07-17T03:49:32.215Z,20.30
2018-07-17T03:51:36.200Z,20.30
2018-07-17T03:53:40.449Z,20.30
2018-07-17T03:55:44.465Z,20.30
2018-07-17T03:57:49.733Z,20.20
2018-07-17T03:59:53.795Z,20.30
2018-07-17T04:01:57.729Z,20.30
2018-07-17T04:04:03.363Z,20.40
2018-07-17T04:06:08.051Z,20.50
2018-07-17T04:08:11.996Z,20.40
2018-07-17T04:10:16.339Z,20.00
2018-07-17T04:12:20.292Z,19.80
2018-07-17T04:14:26.067Z,19.90
2018-07-17T04:16:30.609Z,20.20
2018-07-17T04:18:34.611Z,20.30
2018-07-17T04:20:38.559Z,20.40
2018-07-17T04:22:52.199Z,20.70
2018-07-17T04:24:56.370Z,20.90
2018-07-17T04:27:01.312Z,21.20
2018-07-17T04:29:07.091Z,20.90
2018-07-17T04:31:11.341Z,20.70
2018-07-17T04:33:15.444Z,20.80
2018-07-17T04:35:19.814Z,21.10
2018-07-17T04:37:26.726Z,21.40
2018-07-17T04:39:33.683Z,21.70
2018-07-17T04:41:39.448Z,21.90
2018-07-17T04:43:45.458Z,22.10
2018-07-17T04:45:50.087Z,22.30
2018-07-17T04:47:56.469Z,22.60
2018-07-17T04:50:00.463Z,22.70
2018-07-17T04:52:04.507Z,22.80
2018-07-17T04:54:10.802Z,22.90
2018-07-17T04:56:15.862Z,23.00
2018-07-17T04:58:19.874Z,23.00
2018-07-17T05:00:29.200Z,23.20
2018-07-17T05:02:33.183Z,23.30
2018-07-17T05:04:37.925Z,23.60
2018-07-17T05:06:42.375Z,23.80
2018-07-17T05:08:47.376Z,24.00
2018-07-17T05:10:51.421Z,24.20
2018-07-17T05:15:21.010Z,24.40
2018-07-17T05:17:25.429Z,24.20
2018-07-17T05:19:31.007Z,24.40
2018-07-17T05:21:35.062Z,24.50
2018-07-17T05:23:40.012Z,24.70
2018-07-17T05:25:45.430Z,24.80
2018-07-17T05:27:57.480Z,25.00
2018-07-17T05:30:01.500Z,25.10
2018-07-17T05:32:06.731Z,25.40
2018-07-17T05:34:11.601Z,25.60
2018-07-17T05:36:20.208Z,25.60
2018-07-17T05:38:25.720Z,25.50
2018-07-17T05:40:30.627Z,25.50
2018-07-17T05:42:35.327Z,25.60
2018-07-17T05:44:53.385Z,25.60
2018-07-17T05:47:11.752Z,25.70
2018-07-17T05:49:17.284Z,25.80
2018-07-17T05:51:21.606Z,25.80
2018-07-17T05:53:26.481Z,25.60
2018-07-17T05:55:31.970Z,25.70
2018-07-17T05:57:37.788Z,25.80
2018-07-17T05:59:44.671Z,26.00
2018-07-17T06:01:49.196Z,26.00
2018-07-17T06:03:54.508Z,26.30
2018-07-17T06:05:58.486Z,26.60
2018-07-17T06:08:03.505Z,26.80
2018-07-17T06:10:12.578Z,27.00
2018-07-17T06:12:17.608Z,27.20
2018-07-17T06:14:26.668Z,27.40
2018-07-17T06:16:32.570Z,27.60
2018-07-17T06:18:36.571Z,27.70
2018-07-17T06:20:40.660Z,28.00
2018-07-17T06:22:45.507Z,27.90
2018-07-17T06:24:49.720Z,27.90
2018-07-17T06:27:04.819Z,28.10
2018-07-17T06:31:24.360Z,28.40
2018-07-17T06:33:30.083Z,28.40
2018-07-17T06:37:44.428Z,28.90
2018-07-17T06:39:51.993Z,29.10
2018-07-17T06:41:57.463Z,29.20
2018-07-17T06:44:06.340Z,29.40
2018-07-17T06:46:11.047Z,29.60
2018-07-17T06:48:15.035Z,29.80
2018-07-17T06:50:19.438Z,30.00
2018-07-17T06:52:23.381Z,30.20
2018-07-17T06:54:30.306Z,30.30
2018-07-17T06:56:40.427Z,30.40
2018-07-17T06:58:45.765Z,30.30
2018-07-17T07:00:50.984Z,30.30
2018-07-17T07:02:55.762Z,30.40
2018-07-17T07:05:01.633Z,30.50
2018-07-17T07:07:07.430Z,30.50
2018-07-17T07:09:14.447Z,30.70
2018-07-17T07:11:19.441Z,30.90
2018-07-17T07:13:24.793Z,31.00
2018-07-17T07:15:28.883Z,31.10
2018-07-17T07:17:32.881Z,31.10
2018-07-17T07:19:41.609Z,31.20
2018-07-17T07:21:46.308Z,31.30
2018-07-17T07:23:50.277Z,31.30
2018-07-17T07:25:55.454Z,31.20
2018-07-17T07:28:07.200Z,31.10
2018-07-17T07:30:20.035Z,30.90
2018-07-17T07:32:28.414Z,31.00
2018-07-17T07:34:32.369Z,31.00
2018-07-17T07:36:38.351Z,30.70
2018-07-17T07:38:46.610Z,30.90
2018-07-17T07:40:52.198Z,31.00
2018-07-17T07:42:56.234Z,31.40
2018-07-17T07:45:00.753Z,31.50
2018-07-17T07:47:04.735Z,31.70
2018-07-17T07:49:11.065Z,31.90
2018-07-17T07:51:21.995Z,31.80
2018-07-17T07:53:28.463Z,31.80
2018-07-17T07:55:32.489Z,31.80
2018-07-17T07:57:37.986Z,31.90
2018-07-17T07:59:46.736Z,32.20
2018-07-17T08:01:50.727Z,32.60
2018-07-17T08:03:57.467Z,32.80
2018-07-17T08:06:02.090Z,33.00
2018-07-17T08:08:08.241Z,33.40
2018-07-17T08:12:16.335Z,33.70
2018-07-17T08:14:22.677Z,33.70
2018-07-17T08:16:28.294Z,33.80
2018-07-17T08:18:37.136Z,33.90
2018-07-17T08:21:05.964Z,34.10
2018-07-17T08:23:10.523Z,34.30
2018-07-17T08:25:16.942Z,34.20
2018-07-17T08:27:21.793Z,34.20
2018-07-17T08:29:32.552Z,34.30
2018-07-17T08:31:38.818Z,34.30
2018-07-17T08:33:44.710Z,34.50
2018-07-17T08:35:53.262Z,34.50
2018-07-17T08:38:13.202Z,34.60
2018-07-17T08:40:17.151Z,34.70
2018-07-17T08:42:25.267Z,34.60
2018-07-17T08:44:30.208Z,34.50
2018-07-17T08:48:47.198Z,34.40
2018-07-17T08:50:51.107Z,34.50
2018-07-17T08:52:55.403Z,34.60
2018-07-17T08:55:01.400Z,34.60
2018-07-17T08:57:07.018Z,34.80
2018-07-17T08:59:12.089Z,34.90
2018-07-17T09:01:24.182Z,35.10
2018-07-17T09:03:42.155Z,35.30
2018-07-17T09:05:48.128Z,35.50
2018-07-17T09:07:54.010Z,35.70
2018-07-17T09:09:58.828Z,35.80
2018-07-17T09:12:04.732Z,36.00
2018-07-17T09:14:09.032Z,36.00
2018-07-17T09:16:13.824Z,36.00
2018-07-17T09:18:19.278Z,36.00
2018-07-17T09:20:27.577Z,35.60
2018-07-17T09:22:32.475Z,35.70
2018-07-17T09:24:36.406Z,36.00
2018-07-17T09:26:40.678Z,36.30
2018-07-17T09:28:45.969Z,36.40
2018-07-17T09:30:55.512Z,36.40
2018-07-17T09:33:03.104Z,36.50
2018-07-17T09:35:07.992Z,36.70
2018-07-17T09:37:12.978Z,36.80
2018-07-17T09:39:16.937Z,37.00
2018-07-17T09:41:22.816Z,37.30
2018-07-17T09:43:27.278Z,37.40
2018-07-17T09:45:32.202Z,37.40
2018-07-17T09:47:36.282Z,37.30
2018-07-17T09:49:40.544Z,37.50
2018-07-17T09:51:47.070Z,37.50
2018-07-17T09:53:51.100Z,37.50
2018-07-17T09:55:55.113Z,37.60
2018-07-17T09:58:05.684Z,37.80
2018-07-17T10:00:15.636Z,37.90
2018-07-17T10:02:26.173Z,38.20
2018-07-17T10:04:34.876Z,38.40
2018-07-17T10:06:42.422Z,38.30
2018-07-17T10:08:49.667Z,38.10
2018-07-17T10:10:58.295Z,37.80
2018-07-17T10:13:04.406Z,37.90
2018-07-17T10:15:14.377Z,38.20
2018-07-17T10:17:21.715Z,38.30
2018-07-17T10:19:26.370Z,38.20
2018-07-17T10:21:32.264Z,38.20
2018-07-17T10:23:38.412Z,38.00
2018-07-17T10:25:42.388Z,37.70
2018-07-17T10:27:46.389Z,37.60
2018-07-17T10:29:52.522Z,37.20
2018-07-17T10:32:00.511Z,37.50
2018-07-17T10:34:06.808Z,37.50
2018-07-17T10:36:11.188Z,37.70
2018-07-17T10:38:17.229Z,37.40
2018-07-17T10:40:23.284Z,37.30
2018-07-17T10:42:33.751Z,37.50
2018-07-17T10:44:39.357Z,37.50
2018-07-17T10:46:43.723Z,37.70
2018-07-17T10:50:53.363Z,38.10
2018-07-17T10:53:08.453Z,37.70
2018-07-17T10:55:18.040Z,37.50
2018-07-17T10:57:27.721Z,37.70
2018-07-17T10:59:33.503Z,38.00
2018-07-17T11:01:43.811Z,38.50
2018-07-17T11:03:52.641Z,38.80
2018-07-17T11:06:03.546Z,39.20
2018-07-17T11:08:23.948Z,39.30
2018-07-17T11:10:31.638Z,39.00
2018-07-17T11:12:37.437Z,38.70
2018-07-17T11:14:42.395Z,38.50
2018-07-17T11:16:49.387Z,38.00
2018-07-17T11:18:54.809Z,37.70
2018-07-17T11:21:01.648Z,37.30
2018-07-17T11:23:14.422Z,37.30
2018-07-17T11:25:19.333Z,37.00
2018-07-17T11:27:23.817Z,36.60
2018-07-17T11:29:27.783Z,36.30
2018-07-17T11:33:48.238Z,35.60
2018-07-17T11:35:53.833Z,35.20
2018-07-17T11:37:59.795Z,35.10
2018-07-17T11:40:09.324Z,34.90
2018-07-17T11:42:15.085Z,35.00
2018-07-17T11:44:19.628Z,35.50
2018-07-17T11:48:37.600Z,36.60
2018-07-17T11:50:44.105Z,36.80
2018-07-17T11:52:49.865Z,37.00
2018-07-17T11:55:32.672Z,37.20
2018-07-17T11:57:37.999Z,37.50
2018-07-17T11:59:42.023Z,37.20
2018-07-17T12:04:06.750Z,36.40
2018-07-17T12:06:11.198Z,36.30
2018-07-17T12:08:40.736Z,36.60
2018-07-17T12:10:45.235Z,37.00
2018-07-17T12:12:49.928Z,37.40
2018-07-17T12:14:54.750Z,37.50
2018-07-17T12:17:01.242Z,38.00
2018-07-17T12:19:09.069Z,38.40
2018-07-17T12:21:14.875Z,38.60
2018-07-17T12:23:21.491Z,38.70
2018-07-17T12:25:25.926Z,38.60
2018-07-17T12:27:30.029Z,38.40
2018-07-17T12:29:40.480Z,37.80
2018-07-17T12:31:47.729Z,37.30
2018-07-17T12:33:54.700Z,37.00
2018-07-17T12:36:03.379Z,36.80
2018-07-17T12:38:12.908Z,36.80
2018-07-17T12:40:25.207Z,37.00
2018-07-17T12:42:37.132Z,37.20
2018-07-17T12:44:41.135Z,37.50
2018-07-17T12:46:45.788Z,37.50
2018-07-17T12:48:51.167Z,37.30
2018-07-17T12:50:58.796Z,36.40
2018-07-17T12:53:03.311Z,35.80
2018-07-17T12:55:07.736Z,35.70
2018-07-17T12:57:12.019Z,36.00
2018-07-17T12:59:20.631Z,36.50
2018-07-17T13:01:29.620Z,37.00
2018-07-17T13:03:39.313Z,37.50
2018-07-17T13:05:44.219Z,37.90
2018-07-17T13:07:54.307Z,37.90
2018-07-17T13:10:00.306Z,38.00
2018-07-17T13:12:05.280Z,38.50
2018-07-17T13:14:11.013Z,38.80
2018-07-17T13:16:22.512Z,39.20
2018-07-17T13:18:30.396Z,39.20
2018-07-17T13:20:34.387Z,38.70
2018-07-17T13:22:40.547Z,39.00
2018-07-17T13:24:46.083Z,39.30
2018-07-17T13:26:52.517Z,39.90
2018-07-17T13:28:58.151Z,40.30
2018-07-17T13:31:04.031Z,40.50
2018-07-17T13:33:09.044Z,40.40
2018-07-17T13:35:17.967Z,40.50
2018-07-17T13:37:21.974Z,40.80
2018-07-17T13:39:26.398Z,40.80
2018-07-17T13:41:38.800Z,41.30
2018-07-17T13:43:45.462Z,41.60
2018-07-17T13:45:50.012Z,41.80
2018-07-17T13:47:57.126Z,42.00
2018-07-17T13:50:11.876Z,42.10
2018-07-17T13:52:19.091Z,42.00
2018-07-17T13:54:23.320Z,42.00
2018-07-17T13:56:30.592Z,42.00
2018-07-17T13:58:43.695Z,42.20
2018-07-17T14:00:47.780Z,42.60
2018-07-17T14:02:52.376Z,42.40
2018-07-17T14:04:57.300Z,42.30
2018-07-17T14:07:02.088Z,42.60
2018-07-17T14:09:09.328Z,43.40
2018-07-17T14:11:14.363Z,44.00
2018-07-17T14:13:18.870Z,44.60
2018-07-17T14:15:23.989Z,45.10
2018-07-17T14:17:31.657Z,44.90
2018-07-17T14:19:35.707Z,44.50
2018-07-17T14:21:41.394Z,43.90
2018-07-17T14:23:54.508Z,42.80
2018-07-17T14:26:01.602Z,42.00
2018-07-17T14:28:06.740Z,41.10
2018-07-17T14:30:13.431Z,40.30
2018-07-17T14:32:17.480Z,39.80
2018-07-17T14:34:21.484Z,39.10
2018-07-17T14:36:26.383Z,38.60
2018-07-17T14:38:32.071Z,38.20
2018-07-17T14:40:43.997Z,37.90
2018-07-17T14:42:51.265Z,38.00
2018-07-17T14:45:03.302Z,37.90
2018-07-17T14:47:12.584Z,37.90
2018-07-17T14:49:17.262Z,37.60
2018-07-17T14:51:22.904Z,37.20
2018-07-17T14:53:32.184Z,37.00
2018-07-17T14:55:37.139Z,36.80
2018-07-17T14:57:42.076Z,36.40
2018-07-17T14:59:46.053Z,35.80
2018-07-17T15:01:50.075Z,35.50
2018-07-17T15:03:54.439Z,35.20
2018-07-17T15:05:59.468Z,34.90
2018-07-17T15:08:04.787Z,34.60
2018-07-17T15:10:18.685Z,34.40
2018-07-17T15:12:22.685Z,34.50
2018-07-17T15:14:35.069Z,34.20
2018-07-17T15:16:42.951Z,34.10
2018-07-17T15:18:51.525Z,34.20
2018-07-17T15:20:57.206Z,34.80
2018-07-17T15:23:01.992Z,35.30
2018-07-17T15:25:08.889Z,35.80
2018-07-17T15:29:23.940Z,36.50
2018-07-17T15:31:29.228Z,36.80
2018-07-17T15:33:40.136Z,36.90
2018-07-17T15:35:44.781Z,36.50
2018-07-17T15:37:51.928Z,35.60
2018-07-17T15:42:04.263Z,34.50
2018-07-17T15:44:08.475Z,33.90
2018-07-17T15:46:15.283Z,33.50
2018-07-17T15:48:20.721Z,33.30
2018-07-17T15:50:25.648Z,33.00
2018-07-17T15:52:30.499Z,32.80
2018-07-17T15:54:36.064Z,32.50
2018-07-17T15:56:40.625Z,32.40
2018-07-17T15:58:47.789Z,32.00
2018-07-17T16:02:57.317Z,31.50
2018-07-17T16:05:04.504Z,31.40
2018-07-17T16:07:25.361Z,31.40
2018-07-17T16:09:29.644Z,31.30
2018-07-17T16:11:35.646Z,31.30
2018-07-17T16:13:40.923Z,31.10
2018-07-17T16:15:45.631Z,31.10
2018-07-17T16:17:53.905Z,31.10
2018-07-17T16:19:59.278Z,31.00
2018-07-17T16:24:34.661Z,30.90
2018-07-17T16:26:43.715Z,30.90
2018-07-17T16:29:37.303Z,30.80
2018-07-17T16:31:43.415Z,30.60
2018-07-17T16:33:54.293Z,30.80
2018-07-17T16:36:01.333Z,30.80
2018-07-17T16:38:18.740Z,30.70
2018-07-17T16:40:40.427Z,30.90
2018-07-17T16:42:45.637Z,30.80
2018-07-17T16:44:51.384Z,30.70
2018-07-17T16:46:59.618Z,30.70
2018-07-17T16:49:09.204Z,30.50
2018-07-17T16:51:14.792Z,30.60
2018-07-17T16:53:22.152Z,30.60
2018-07-17T16:55:41.654Z,30.50
2018-07-17T16:57:49.994Z,30.70
2018-07-17T16:59:55.376Z,31.00
2018-07-17T17:02:07.717Z,31.00
2018-07-17T17:04:20.708Z,31.10
2018-07-17T17:08:33.640Z,32.30
2018-07-17T17:12:43.008Z,33.30
2018-07-17T17:14:48.795Z,33.50
2018-07-17T17:16:52.939Z,33.60
2018-07-17T17:18:57.499Z,33.60
2018-07-17T17:21:03.325Z,33.50
2018-07-17T17:25:13.240Z,33.40
2018-07-17T17:27:23.200Z,33.30
2018-07-17T17:29:34.224Z,33.30
2018-07-17T17:31:38.855Z,33.20
2018-07-17T17:33:43.805Z,32.90
2018-07-17T17:36:22.389Z,32.80
2018-07-17T17:38:42.559Z,32.70
2018-07-17T17:40:46.839Z,32.60
2018-07-17T17:42:51.809Z,33.20
2018-07-17T17:44:56.652Z,33.50
2018-07-17T17:47:02.870Z,33.50
2018-07-17T17:49:08.423Z,33.70
2018-07-17T17:51:16.512Z,34.30
2018-07-17T17:53:22.142Z,34.70
2018-07-17T17:55:35.268Z,35.10
2018-07-17T17:57:42.499Z,35.40
2018-07-17T17:59:49.387Z,35.60
2018-07-17T18:01:57.765Z,35.70
2018-07-17T18:04:06.526Z,36.10
2018-07-17T18:06:11.415Z,36.20
2018-07-17T18:08:15.384Z,35.80
2018-07-17T18:10:22.304Z,35.60
2018-07-17T18:12:27.288Z,34.90
2018-07-17T18:14:34.276Z,34.30
2018-07-17T18:16:39.566Z,34.10
2018-07-17T18:18:44.289Z,34.10
2018-07-17T18:20:49.582Z,34.00
2018-07-17T18:22:53.871Z,33.90
2018-07-17T18:25:05.764Z,33.90
2018-07-17T18:27:14.434Z,33.80
2018-07-17T18:29:21.282Z,33.50
2018-07-17T18:31:25.846Z,33.20
2018-07-17T18:33:29.791Z,33.10
2018-07-17T18:35:34.338Z,32.70
2018-07-17T18:37:38.331Z,32.60
2018-07-17T18:39:42.353Z,32.30
2018-07-17T18:41:50.653Z,31.90
2018-07-17T18:43:57.305Z,31.60
2018-07-17T18:46:02.649Z,31.20
2018-07-17T18:48:07.673Z,30.90
2018-07-17T18:50:28.344Z,30.80
2018-07-17T18:52:55.508Z,30.40
2018-07-17T18:58:35.554Z,29.70
2018-07-17T19:00:56.809Z,29.70
2018-07-17T19:03:27.714Z,29.60
2018-07-17T19:05:43.025Z,29.40
2018-07-17T19:07:50.464Z,29.40
2018-07-17T19:09:59.877Z,29.40
2018-07-17T19:12:04.175Z,29.30
2018-07-17T19:14:08.445Z,29.30
2018-07-17T19:16:12.471Z,29.30
2018-07-17T19:18:17.423Z,29.40
2018-07-17T19:20:22.267Z,29.30
2018-07-17T19:22:28.358Z,29.30
2018-07-17T19:24:38.877Z,29.40
2018-07-17T19:27:19.031Z,29.20
2018-07-17T19:29:38.728Z,29.20
2018-07-17T19:31:46.862Z,29.30
2018-07-17T19:33:57.295Z,29.20
2018-07-17T19:36:02.620Z,29.20
2018-07-17T19:38:06.699Z,29.00
2018-07-17T19:40:10.648Z,28.80
2018-07-17T19:42:16.347Z,28.60
2018-07-17T19:44:23.427Z,28.60
2018-07-17T19:49:40.124Z,28.60
2018-07-17T19:51:46.467Z,28.30
2018-07-17T19:53:58.354Z,28.20
2018-07-17T19:56:02.761Z,27.90
2018-07-17T20:05:17.620Z,27.70
2018-07-17T20:07:23.109Z,27.50
2018-07-17T20:09:27.040Z,27.30
2018-07-17T20:11:34.650Z,27.10
2018-07-17T20:13:40.172Z,26.90
2018-07-17T20:15:47.402Z,26.90
2018-07-17T20:17:53.727Z,27.00
2018-07-17T20:19:58.270Z,27.10
2018-07-17T20:22:04.089Z,27.20
2018-07-17T20:24:08.019Z,27.10
2018-07-17T20:26:16.369Z,27.00
2018-07-17T20:28:21.703Z,27.10
2018-07-17T20:30:25.797Z,27.00
2018-07-17T20:32:33.502Z,26.90
2018-07-17T20:34:39.849Z,27.00
2018-07-17T20:36:45.213Z,26.90
2018-07-17T20:38:51.814Z,26.80
2018-07-17T20:40:59.809Z,26.70
2018-07-17T20:43:04.746Z,26.70
2018-07-17T20:45:14.202Z,26.70
2018-07-17T20:47:21.278Z,26.60
2018-07-17T20:51:34.744Z,26.50
2018-07-17T20:53:39.303Z,26.50
2018-07-17T20:55:45.611Z,26.40
2018-07-17T20:57:50.280Z,26.40
2018-07-17T20:59:58.586Z,26.50
2018-07-17T21:02:04.213Z,26.40
2018-07-17T21:04:09.840Z,26.40
2018-07-17T21:06:15.608Z,26.40
2018-07-17T21:08:21.715Z,26.30
2018-07-17T21:10:27.331Z,26.40
2018-07-17T21:12:33.366Z,26.40
2018-07-17T21:14:41.854Z,26.50
2018-07-17T21:16:46.083Z,26.40
2018-07-17T21:18:53.720Z,26.30
2018-07-17T21:21:00.046Z,26.40
2018-07-17T21:23:12.272Z,26.30
2018-07-17T21:25:25.314Z,26.30
2018-07-17T21:27:33.139Z,26.20
2018-07-17T21:29:38.771Z,26.20
2018-07-17T21:31:49.076Z,26.20
2018-07-17T21:33:53.040Z,26.20
2018-07-17T21:38:09.018Z,26.10
2018-07-17T21:40:15.213Z,26.00
2018-07-17T21:44:31.780Z,25.80
2018-07-17T21:46:39.410Z,25.80
2018-07-17T21:50:49.124Z,25.80
2018-07-17T21:53:01.603Z,26.00
2018-07-17T21:55:09.496Z,26.00
2018-07-17T21:57:18.098Z,26.00
2018-07-17T21:59:23.629Z,26.00
2018-07-17T22:01:33.193Z,25.90
2018-07-17T22:03:37.151Z,25.90
2018-07-17T22:05:42.593Z,25.80
2018-07-17T22:07:48.996Z,25.70
2018-07-17T22:09:53.084Z,25.70
2018-07-17T22:11:57.727Z,25.80
2018-07-17T22:14:01.754Z,25.80
2018-07-17T22:18:11.447Z,25.90
2018-07-17T22:20:19.345Z,26.00
2018-07-17T22:22:24.361Z,25.90
2018-07-17T22:24:32.242Z,25.90
2018-07-17T22:26:38.531Z,25.90
2018-07-17T22:28:44.592Z,25.90
2018-07-17T22:30:51.677Z,25.90
2018-07-17T22:32:58.226Z,25.90
2018-07-17T22:35:04.127Z,25.90
2018-07-17T22:37:08.739Z,26.00
2018-07-17T22:39:14.309Z,25.90
2018-07-17T22:41:18.360Z,26.00
2018-07-17T22:43:23.047Z,26.00
2018-07-17T22:45:27.369Z,26.00
2018-07-17T22:47:31.394Z,26.10
2018-07-17T22:49:38.459Z,26.00
2018-07-17T22:51:43.390Z,26.10
2018-07-17T22:53:49.808Z,26.00
2018-07-17T22:55:57.715Z,26.00
2018-07-17T22:58:04.040Z,26.00
2018-07-17T23:00:08.185Z,26.20
2018-07-17T23:04:18.400Z,26.20
2018-07-17T23:06:23.638Z,26.10
2018-07-17T23:08:29.825Z,26.20
2018-07-17T23:10:35.052Z,26.30
2018-07-17T23:12:39.087Z,26.40
2018-07-17T23:14:43.207Z,26.30
2018-07-17T23:18:57.376Z,26.20
2018-07-17T23:21:01.439Z,26.20
2018-07-17T23:23:12.253Z,26.20
2018-07-17T23:25:16.412Z,26.10
2018-07-17T23:27:22.084Z,26.20
2018-07-17T23:29:27.577Z,26.00
2018-07-17T23:31:31.620Z,25.90
2018-07-17T23:33:36.145Z,25.80
2018-07-17T23:35:56.098Z,25.90
2018-07-17T23:38:03.040Z,25.80
2018-07-17T23:40:10.111Z,25.80
2018-07-17T23:42:17.074Z,25.80
2018-07-17T23:44:22.205Z,25.70
2018-07-17T23:46:27.292Z,25.70
2018-07-17T23:48:32.638Z,25.70
2018-07-17T23:50:37.056Z,25.60
2018-07-17T23:52:43.322Z,25.50
2018-07-17T23:54:47.310Z,25.50
2018-07-17T23:56:52.507Z,25.40
2018-07-17T23:58:58.497Z,25.50
